Time;durP1;ratioP1;P1;durP2;ratioP2;P2;SDS_P1;SDS_P2;PMS_P1;PMS_P2;Temp;Humidity;BMP_temperature;BMP_pressure;BME280_temperature;BME280_humidity;BME280_pressure;Samples;Min_cycle;Max_cycle;Signal;HPM_P1;HPM_P2
2022/11/26 00:02:23;;;;;;;11.63;8.52;;;;;;;;;;5092315;28;20048;-88
2022/11/26 00:04:51;;;;;;;13.52;9.32;;;;;;;;;;5092319;28;20458;-88
2022/11/26 00:07:21;;;;;;;10.23;7.90;;;;;;;;;;5092180;28;20079;-87
2022/11/26 00:09:49;;;;;;;14.32;7.60;;;;;;;;;;5091929;28;20055;-88
2022/11/26 00:12:17;;;;;;;10.13;7.63;;;;;;;;;;5092037;28;20052;-88
2022/11/26 00:14:46;;;;;;;9.43;7.63;;;;;;;;;;5091855;28;20047;-87
2022/11/26 00:17:13;;;;;;;14.48;9.02;;;;;;;;;;5092171;28;20059;-88
2022/11/26 00:19:41;;;;;;;12.73;7.97;;;;;;;;;;5092006;28;20126;-88
2022/11/26 00:22:18;;;;;;;9.25;7.63;;;;;;;;;;5092884;28;20040;-88
2022/11/26 00:24:46;;;;;;;13.35;7.78;;;;;;;;;;5093091;28;20056;-89
2022/11/26 00:27:13;;;;;;;15.18;7.82;;;;;;;;;;5092226;28;20048;-90
2022/11/26 00:29:40;;;;;;;10.18;7.70;;;;;;;;;;5092197;28;20442;-90
2022/11/26 00:32:18;;;;;;;13.52;9.15;;;;;;;;;;5092208;28;20575;-91
2022/11/26 00:34:45;;;;;;;10.75;7.50;;;;;;;;;;5092014;28;20125;-91
2022/11/26 00:37:19;;;;;;;12.32;7.93;;;;;;;;;;5092012;28;20119;-91
2022/11/26 00:39:46;;;;;;;12.30;9.80;;;;;;;;;;5092073;28;20063;-91
2022/11/26 00:42:14;;;;;;;16.17;11.40;;;;;;;;;;5092122;28;20058;-92
2022/11/26 00:44:41;;;;;;;18.83;12.88;;;;;;;;;;5098556;28;20048;-92
2022/11/26 00:47:11;;;;;;;14.38;11.43;;;;;;;;;;5115756;28;20484;-92
2022/11/26 00:49:38;;;;;;;11.70;9.70;;;;;;;;;;5099999;28;20058;-93
2022/11/26 00:52:13;;;;;;;10.73;9.18;;;;;;;;;;5098960;28;20517;-93
2022/11/26 00:54:41;;;;;;;20.00;10.20;;;;;;;;;;5098866;28;20047;-93
2022/11/26 00:57:09;;;;;;;13.07;8.65;;;;;;;;;;5099178;28;20410;-93
2022/11/26 00:59:37;;;;;;;15.05;8.38;;;;;;;;;;5098673;28;20050;-93
2022/11/26 01:02:04;;;;;;;12.65;8.40;;;;;;;;;;5098734;28;20054;-93
2022/11/26 01:04:35;;;;;;;9.98;8.20;;;;;;;;;;5101565;28;20067;-93
2022/11/26 01:07:02;;;;;;;11.98;7.50;;;;;;;;;;5099346;28;20100;-93
2022/11/26 01:09:30;;;;;;;11.23;7.68;;;;;;;;;;5099007;28;20050;-93
2022/11/26 01:11:57;;;;;;;13.23;8.02;;;;;;;;;;5098453;28;20056;-93
2022/11/26 01:14:25;;;;;;;12.35;7.35;;;;;;;;;;5098688;28;20043;-92
2022/11/26 01:16:54;;;;;;;14.13;7.70;;;;;;;;;;5098783;28;20047;-93
2022/11/26 01:19:21;;;;;;;10.85;7.68;;;;;;;;;;5098693;28;20105;-94
2022/11/26 01:21:49;;;;;;;11.43;7.28;;;;;;;;;;5098789;28;20058;-93
2022/11/26 01:24:16;;;;;;;10.18;7.82;;;;;;;;;;5098851;28;20039;-94
2022/11/26 01:26:44;;;;;;;12.63;7.35;;;;;;;;;;5098546;28;20055;-94
2022/11/26 01:29:15;;;;;;;11.48;7.45;;;;;;;;;;5098269;28;20483;-94
2022/11/26 01:31:43;;;;;;;9.10;7.50;;;;;;;;;;5098530;28;20044;-94
2022/11/26 01:34:10;;;;;;;9.45;7.50;;;;;;;;;;5098448;28;20079;-94
2022/11/26 01:36:39;;;;;;;14.80;7.72;;;;;;;;;;5097896;28;20074;-94
2022/11/26 01:39:10;;;;;;;16.23;9.25;;;;;;;;;;5098148;28;20050;-94
2022/11/26 01:41:56;;;;;;;16.05;8.98;;;;;;;;;;5098096;28;20053;-94
2022/11/26 01:44:25;;;;;;;17.02;8.75;;;;;;;;;;5097945;28;20059;-93
2022/11/26 01:46:52;;;;;;;20.15;12.45;;;;;;;;;;5097618;28;20051;-94
2022/11/26 01:49:24;;;;;;;15.93;9.85;;;;;;;;;;5097997;28;20048;-94
2022/11/26 01:52:18;;;;;;;12.30;9.30;;;;;;;;;;5097976;28;20057;-93
2022/11/26 01:54:46;;;;;;;12.60;9.60;;;;;;;;;;5094783;28;20047;-94
2022/11/26 01:57:24;;;;;;;14.93;10.10;;;;;;;;;;5097251;28;20051;-94
2022/11/26 01:59:53;;;;;;;19.92;13.88;;;;;;;;;;5111398;28;20073;-94
2022/11/26 02:02:24;;;;;;;18.73;12.30;;;;;;;;;;5118689;28;20111;-94
2022/11/26 02:05:04;;;;;;;16.08;10.07;;;;;;;;;;5097506;28;20476;-94
2022/11/26 02:07:31;;;;;;;16.50;11.98;;;;;;;;;;5097357;28;20054;-94
2022/11/26 02:09:59;;;;;;;16.40;11.88;;;;;;;;;;5097734;28;20081;-94
2022/11/26 02:12:27;;;;;;;13.20;9.68;;;;;;;;;;5097620;28;20047;-93
2022/11/26 02:14:54;;;;;;;12.57;9.68;;;;;;;;;;5097142;28;20050;-94
2022/11/26 02:17:25;;;;;;;16.67;9.30;;;;;;;;;;5097297;28;20046;-94
2022/11/26 02:20:11;;;;;;;12.32;7.93;;;;;;;;;;5097178;28;20048;-94
2022/11/26 02:22:45;;;;;;;13.77;8.93;;;;;;;;;;5097281;28;20051;-94
2022/11/26 02:25:21;;;;;;;12.25;9.07;;;;;;;;;;5097692;28;20051;-93
2022/11/26 02:27:48;;;;;;;13.88;9.80;;;;;;;;;;5097716;28;20121;-94
2022/11/26 02:30:17;;;;;;;18.67;12.32;;;;;;;;;;5084745;28;20055;-93
2022/11/26 02:33:00;;;;;;;15.80;10.50;;;;;;;;;;5109381;28;20054;-94
2022/11/26 02:35:27;;;;;;;15.10;10.88;;;;;;;;;;5102062;28;20047;-94
2022/11/26 02:37:55;;;;;;;17.85;10.35;;;;;;;;;;5097210;28;20052;-93
2022/11/26 02:40:23;;;;;;;13.75;10.25;;;;;;;;;;5096902;28;20057;-94
2022/11/26 02:42:51;;;;;;;15.32;12.00;;;;;;;;;;5096733;28;20506;-93
2022/11/26 02:45:23;;;;;;;15.63;11.77;;;;;;;;;;5096773;28;20104;-94
2022/11/26 02:47:52;;;;;;;17.80;11.65;;;;;;;;;;5096868;28;20082;-94
2022/11/26 02:50:21;;;;;;;17.13;10.45;;;;;;;;;;5096847;28;20057;-94
2022/11/26 02:52:50;;;;;;;13.52;10.23;;;;;;;;;;5096785;28;20054;-94
2022/11/26 02:55:19;;;;;;;17.95;10.32;;;;;;;;;;5096302;28;20414;-93
2022/11/26 02:57:48;;;;;;;17.23;11.20;;;;;;;;;;5096692;28;20450;-94
2022/11/26 03:00:15;;;;;;;13.52;9.05;;;;;;;;;;5096768;28;20054;-94
2022/11/26 03:02:52;;;;;;;16.20;10.68;;;;;;;;;;5096414;28;20051;-93
2022/11/26 03:05:19;;;;;;;12.90;9.27;;;;;;;;;;5096638;28;20039;-93
2022/11/26 03:07:48;;;;;;;17.77;9.88;;;;;;;;;;5095518;28;20051;-93
2022/11/26 03:10:15;;;;;;;16.25;9.13;;;;;;;;;;5096750;28;20054;-93
2022/11/26 03:12:42;;;;;;;12.27;8.77;;;;;;;;;;5097738;28;20048;-93
2022/11/26 03:15:10;;;;;;;26.33;16.67;;;;;;;;;;5118708;28;20063;-93
2022/11/26 03:17:37;;;;;;;22.67;15.45;;;;;;;;;;5103700;28;20112;-93
2022/11/26 03:20:05;;;;;;;19.63;15.57;;;;;;;;;;5096016;28;20056;-94
2022/11/26 03:22:32;;;;;;;21.48;16.20;;;;;;;;;;5096414;28;20415;-93
2022/11/26 03:24:59;;;;;;;20.77;14.65;;;;;;;;;;5096253;28;20079;-93
2022/11/26 03:27:27;;;;;;;20.92;13.93;;;;;;;;;;5096017;28;20053;-94
2022/11/26 03:29:54;;;;;;;19.75;14.25;;;;;;;;;;5096356;28;20488;-93
2022/11/26 03:32:21;;;;;;;20.65;14.95;;;;;;;;;;5096329;28;20043;-93
2022/11/26 03:34:48;;;;;;;19.83;16.15;;;;;;;;;;5096222;28;20505;-93
2022/11/26 03:37:16;;;;;;;18.13;14.95;;;;;;;;;;5095845;28;20052;-94
2022/11/26 03:39:43;;;;;;;23.83;16.60;;;;;;;;;;5096352;28;20389;-94
2022/11/26 03:42:10;;;;;;;21.38;16.05;;;;;;;;;;5096183;28;20480;-93
2022/11/26 03:44:38;;;;;;;24.08;15.63;;;;;;;;;;5095996;28;20130;-93
2022/11/26 03:47:05;;;;;;;20.70;15.07;;;;;;;;;;5096045;28;20058;-93
2022/11/26 03:49:32;;;;;;;14.82;11.80;;;;;;;;;;5096037;28;20048;-93
2022/11/26 03:52:00;;;;;;;18.05;10.73;;;;;;;;;;5096186;28;20411;-93
2022/11/26 03:54:27;;;;;;;17.17;11.40;;;;;;;;;;5096026;28;20058;-94
2022/11/26 03:56:54;;;;;;;13.80;10.93;;;;;;;;;;5095844;28;20048;-95
2022/11/26 03:59:21;;;;;;;17.00;11.45;;;;;;;;;;5096220;28;20107;-94
2022/11/26 04:01:49;;;;;;;16.75;11.88;;;;;;;;;;5095998;28;20056;-94
2022/11/26 04:04:16;;;;;;;11.30;9.27;;;;;;;;;;5095869;28;20052;-93
2022/11/26 04:06:43;;;;;;;16.02;8.68;;;;;;;;;;5096082;28;20051;-94
2022/11/26 04:09:10;;;;;;;12.27;9.57;;;;;;;;;;5095708;28;20513;-94
2022/11/26 04:11:38;;;;;;;13.20;10.32;;;;;;;;;;5095877;28;20058;-94
2022/11/26 04:14:05;;;;;;;15.40;11.82;;;;;;;;;;5095869;28;20069;-94
2022/11/26 04:16:33;;;;;;;16.83;12.10;;;;;;;;;;5095553;28;20050;-94
2022/11/26 04:19:00;;;;;;;15.25;12.18;;;;;;;;;;5096564;28;20050;-94
2022/11/26 04:21:27;;;;;;;17.63;12.20;;;;;;;;;;5099609;28;20073;-93
2022/11/26 04:23:55;;;;;;;13.25;10.75;;;;;;;;;;5099808;28;20391;-93
2022/11/26 04:26:22;;;;;;;18.48;10.30;;;;;;;;;;5100281;28;20047;-93
2022/11/26 04:28:49;;;;;;;21.77;11.38;;;;;;;;;;5119602;28;20066;-94
2022/11/26 04:31:17;;;;;;;14.52;9.90;;;;;;;;;;5113180;28;20051;-95
2022/11/26 04:33:44;;;;;;;14.20;9.93;;;;;;;;;;5099719;28;20075;-94
2022/11/26 04:36:11;;;;;;;16.67;9.30;;;;;;;;;;5099270;28;20052;-93
2022/11/26 04:38:38;;;;;;;13.25;8.57;;;;;;;;;;5099515;28;20051;-93
2022/11/26 04:41:06;;;;;;;10.82;8.38;;;;;;;;;;5099423;28;20419;-93
2022/11/26 04:43:33;;;;;;;13.55;9.02;;;;;;;;;;5099191;28;20048;-94
2022/11/26 04:46:00;;;;;;;15.52;8.57;;;;;;;;;;5099031;28;20066;-94
2022/11/26 04:48:27;;;;;;;13.18;8.65;;;;;;;;;;5099431;28;20483;-93
2022/11/26 04:50:54;;;;;;;12.73;7.95;;;;;;;;;;5099182;28;20073;-93
2022/11/26 04:53:22;;;;;;;12.98;7.72;;;;;;;;;;5097305;28;20047;-93
2022/11/26 04:55:52;;;;;;;12.70;7.35;;;;;;;;;;5099248;28;20058;-94
2022/11/26 04:58:19;;;;;;;15.30;9.73;;;;;;;;;;5098977;28;20059;-94
2022/11/26 05:00:47;;;;;;;18.42;11.35;;;;;;;;;;5099075;28;20092;-94
2022/11/26 05:03:17;;;;;;;15.63;10.63;;;;;;;;;;5099572;28;20570;-94
2022/11/26 05:05:45;;;;;;;17.65;8.95;;;;;;;;;;5098790;28;20048;-94
2022/11/26 05:08:12;;;;;;;15.07;9.32;;;;;;;;;;5098934;28;20052;-94
2022/11/26 05:10:39;;;;;;;12.98;8.32;;;;;;;;;;5098747;28;20047;-94
2022/11/26 05:13:07;;;;;;;10.93;8.40;;;;;;;;;;5098898;28;20143;-94
2022/11/26 05:15:34;;;;;;;13.40;9.35;;;;;;;;;;5098622;28;20073;-94
2022/11/26 05:18:01;;;;;;;13.98;9.27;;;;;;;;;;5098652;28;20059;-94
2022/11/26 05:20:28;;;;;;;16.17;9.52;;;;;;;;;;5098627;28;20491;-94
2022/11/26 05:22:56;;;;;;;12.15;9.27;;;;;;;;;;5098216;28;20063;-94
2022/11/26 05:25:23;;;;;;;14.45;8.95;;;;;;;;;;5098499;28;20050;-94
2022/11/26 05:27:50;;;;;;;20.95;11.63;;;;;;;;;;5098448;28;20134;-94
2022/11/26 05:30:17;;;;;;;14.48;11.23;;;;;;;;;;5098140;28;20059;-94
2022/11/26 05:32:45;;;;;;;15.13;11.60;;;;;;;;;;5100899;28;20066;-94
2022/11/26 05:35:12;;;;;;;20.75;11.30;;;;;;;;;;5114694;28;20044;-94
2022/11/26 05:37:39;;;;;;;16.38;12.05;;;;;;;;;;5115302;28;20048;-94
2022/11/26 05:40:07;;;;;;;16.50;11.90;;;;;;;;;;5117796;28;20044;-94
2022/11/26 05:42:35;;;;;;;18.40;11.88;;;;;;;;;;5117023;28;20059;-93
2022/11/26 05:45:02;;;;;;;17.42;10.90;;;;;;;;;;5110407;28;20044;-93
2022/11/26 05:47:29;;;;;;;16.10;9.88;;;;;;;;;;5094731;28;20052;-93
2022/11/26 05:49:57;;;;;;;13.90;9.55;;;;;;;;;;5094487;28;20480;-94
2022/11/26 05:52:24;;;;;;;23.75;10.63;;;;;;;;;;5094367;28;20051;-93
2022/11/26 05:54:51;;;;;;;15.10;8.70;;;;;;;;;;5094309;28;20047;-93
2022/11/26 05:57:21;;;;;;;10.85;7.97;;;;;;;;;;5094240;28;20040;-94
2022/11/26 05:59:49;;;;;;;10.35;7.78;;;;;;;;;;5094507;28;20044;-94
2022/11/26 06:02:16;;;;;;;8.45;7.32;;;;;;;;;;5094773;28;20071;-94
2022/11/26 06:04:43;;;;;;;11.43;8.57;;;;;;;;;;5094055;28;20596;-93
2022/11/26 06:07:10;;;;;;;14.88;8.93;;;;;;;;;;5094220;28;20070;-94
2022/11/26 06:09:38;;;;;;;9.75;7.32;;;;;;;;;;5094185;28;20321;-94
2022/11/26 06:12:06;;;;;;;13.80;9.90;;;;;;;;;;5094043;28;20488;-94
2022/11/26 06:14:33;;;;;;;16.52;11.43;;;;;;;;;;5093977;28;20048;-93
2022/11/26 06:17:04;;;;;;;15.52;10.02;;;;;;;;;;5094108;28;20419;-94
2022/11/26 06:19:31;;;;;;;19.17;11.85;;;;;;;;;;5093675;28;20135;-94
2022/11/26 06:21:58;;;;;;;21.38;12.32;;;;;;;;;;5094160;28;20052;-93
2022/11/26 06:24:25;;;;;;;26.50;13.65;;;;;;;;;;5093901;28;20055;-94
2022/11/26 06:26:53;;;;;;;26.92;13.60;;;;;;;;;;5093730;28;20408;-96
2022/11/26 06:29:20;;;;;;;29.45;13.52;;;;;;;;;;5094158;28;20044;-93
2022/11/26 06:31:54;;;;;;;;;;;;;;;;;;5094283;28;20467;-93
2022/11/26 06:34:21;;;;;;;17.77;11.55;;;;;;;;;;5094058;28;19920;-94
2022/11/26 06:36:48;;;;;;;15.82;11.15;;;;;;;;;;5093783;28;20138;-94
2022/11/26 06:39:16;;;;;;;16.52;10.98;;;;;;;;;;5093608;28;20048;-95
2022/11/26 06:41:43;;;;;;;15.43;11.07;;;;;;;;;;5093485;28;20059;-94
2022/11/26 06:44:10;;;;;;;15.75;11.32;;;;;;;;;;5093568;28;20048;-95
2022/11/26 06:46:37;;;;;;;14.07;10.65;;;;;;;;;;5093208;28;20060;-93
2022/11/26 06:49:05;;;;;;;16.55;10.80;;;;;;;;;;5093798;28;20052;-94
2022/11/26 06:51:33;;;;;;;20.88;11.32;;;;;;;;;;5093521;28;20510;-93
2022/11/26 06:54:00;;;;;;;20.27;11.35;;;;;;;;;;5094685;28;20407;-94
2022/11/26 06:56:27;;;;;;;22.38;12.20;;;;;;;;;;5107376;28;20052;-94
2022/11/26 06:58:55;;;;;;;31.08;14.18;;;;;;;;;;5110844;28;20503;-94
2022/11/26 07:01:24;;;;;;;24.75;12.77;;;;;;;;;;5093496;28;20048;-94
2022/11/26 07:03:52;;;;;;;18.95;12.88;;;;;;;;;;5093650;28;20066;-93
2022/11/26 07:06:21;;;;;;;29.90;14.85;;;;;;;;;;5093340;28;20065;-93
2022/11/26 07:08:48;;;;;;;26.90;14.25;;;;;;;;;;5093578;28;20506;-94
2022/11/26 07:11:16;;;;;;;19.88;12.90;;;;;;;;;;5093283;28;20058;-94
2022/11/26 07:13:43;;;;;;;21.30;12.95;;;;;;;;;;5093179;28;20507;-93
2022/11/26 07:16:11;;;;;;;19.08;13.57;;;;;;;;;;5093310;28;20054;-94
2022/11/26 07:18:38;;;;;;;26.90;16.08;;;;;;;;;;5093221;28;20075;-94
2022/11/26 07:21:07;;;;;;;21.95;13.80;;;;;;;;;;5093245;28;20056;-93
2022/11/26 07:23:34;;;;;;;30.00;16.77;;;;;;;;;;5093151;28;20055;-94
2022/11/26 07:26:02;;;;;;;33.03;20.40;;;;;;;;;;5093235;28;20062;-93
2022/11/26 07:28:29;;;;;;;20.73;12.57;;;;;;;;;;5093602;28;20048;-93
2022/11/26 07:31:01;;;;;;;25.35;14.57;;;;;;;;;;5093138;28;20054;-94
2022/11/26 07:33:28;;;;;;;28.30;15.05;;;;;;;;;;5093031;28;20039;-94
2022/11/26 07:35:59;;;;;;;18.95;13.35;;;;;;;;;;5093805;28;20074;-94
2022/11/26 07:38:27;;;;;;;26.70;15.18;;;;;;;;;;5093765;28;20055;-93
2022/11/26 07:40:55;;;;;;;39.38;16.20;;;;;;;;;;5093085;28;20047;-94
2022/11/26 07:43:22;;;;;;;42.55;32.95;;;;;;;;;;5093227;28;20044;-94
2022/11/26 07:45:49;;;;;;;29.25;18.00;;;;;;;;;;5092726;28;20075;-93
2022/11/26 07:48:16;;;;;;;27.50;16.00;;;;;;;;;;5093080;28;20048;-94
2022/11/26 07:50:44;;;;;;;24.25;16.65;;;;;;;;;;5093171;28;20047;-94
2022/11/26 07:53:12;;;;;;;44.80;24.63;;;;;;;;;;5093029;28;20040;-94
2022/11/26 07:55:39;;;;;;;42.25;22.60;;;;;;;;;;5096865;28;20044;-93
2022/11/26 07:58:07;;;;;;;31.65;17.50;;;;;;;;;;5099265;28;20083;-95
2022/11/26 08:00:34;;;;;;;39.03;18.55;;;;;;;;;;5097953;28;20048;-94
2022/11/26 08:03:02;;;;;;;42.28;20.83;;;;;;;;;;5097707;28;20047;-94
2022/11/26 08:05:29;;;;;;;45.42;22.73;;;;;;;;;;5097829;28;20132;-94
2022/11/26 08:07:56;;;;;;;39.70;21.25;;;;;;;;;;5098085;28;20121;-94
2022/11/26 08:10:24;;;;;;;49.40;24.23;;;;;;;;;;5108156;28;20024;-94
2022/11/26 08:12:51;;;;;;;46.20;22.67;;;;;;;;;;5117602;28;20144;-94
2022/11/26 08:15:18;;;;;;;56.10;28.50;;;;;;;;;;5098521;28;20051;-94
2022/11/26 08:17:45;;;;;;;43.97;24.77;;;;;;;;;;5098563;28;20052;-95
2022/11/26 08:20:13;;;;;;;39.40;22.13;;;;;;;;;;5097337;28;20135;-94
2022/11/26 08:22:40;;;;;;;61.92;35.25;;;;;;;;;;5098019;28;20414;-94
2022/11/26 08:25:08;;;;;;;35.58;23.20;;;;;;;;;;5097877;28;20062;-95
2022/11/26 08:27:35;;;;;;;34.08;22.33;;;;;;;;;;5098395;28;20051;-95
2022/11/26 08:30:02;;;;;;;57.28;33.60;;;;;;;;;;5098442;28;20135;-94
2022/11/26 08:32:29;;;;;;;45.50;27.70;;;;;;;;;;5099108;28;20454;-94
2022/11/26 08:34:57;;;;;;;65.20;37.13;;;;;;;;;;5105242;28;20044;-94
2022/11/26 08:37:24;;;;;;;40.63;26.70;;;;;;;;;;5116471;28;20056;-93
2022/11/26 08:39:51;;;;;;;35.40;20.88;;;;;;;;;;5103910;28;20044;-94
2022/11/26 08:42:19;;;;;;;29.00;15.68;;;;;;;;;;5096960;28;20051;-94
2022/11/26 08:44:46;;;;;;;18.70;12.77;;;;;;;;;;5098282;28;20058;-93
2022/11/26 08:47:13;;;;;;;19.70;14.15;;;;;;;;;;5100087;28;20048;-94
2022/11/26 08:49:40;;;;;;;22.60;14.15;;;;;;;;;;5099792;28;20513;-95
2022/11/26 08:52:07;;;;;;;29.17;15.95;;;;;;;;;;5099542;28;20418;-94
2022/11/26 08:54:35;;;;;;;21.50;13.35;;;;;;;;;;5099412;28;20048;-94
2022/11/26 08:57:08;;;;;;;15.73;10.77;;;;;;;;;;5100437;28;20055;-93
2022/11/26 08:59:35;;;;;;;13.75;9.35;;;;;;;;;;5098886;28;20044;-94
2022/11/26 09:02:02;;;;;;;12.27;9.52;;;;;;;;;;5099166;28;20044;-93
2022/11/26 09:04:30;;;;;;;9.98;7.32;;;;;;;;;;5099443;28;20109;-95
2022/11/26 09:06:57;;;;;;;7.95;6.97;;;;;;;;;;5098890;28;20074;-94
2022/11/26 09:09:25;;;;;;;12.23;7.25;;;;;;;;;;5099589;28;20054;-94
2022/11/26 09:11:56;;;;;;;10.27;7.03;;;;;;;;;;5099290;28;20044;-94
2022/11/26 09:14:24;;;;;;;10.30;7.80;;;;;;;;;;5099271;28;20148;-95
2022/11/26 09:16:52;;;;;;;10.88;7.75;;;;;;;;;;5099277;28;20043;-94
2022/11/26 09:19:19;;;;;;;10.63;7.97;;;;;;;;;;5099057;28;20043;-94
2022/11/26 09:21:47;;;;;;;10.02;7.97;;;;;;;;;;5099550;28;20048;-94
2022/11/26 09:24:15;;;;;;;15.73;8.10;;;;;;;;;;5107096;28;20048;-94
2022/11/26 09:26:42;;;;;;;10.98;8.27;;;;;;;;;;5113702;28;20647;-94
2022/11/26 09:29:13;;;;;;;12.52;8.18;;;;;;;;;;5100346;28;20046;-94
2022/11/26 09:31:40;;;;;;;10.88;6.97;;;;;;;;;;5099714;28;20051;-94
2022/11/26 09:34:28;;;;;;;9.70;7.03;;;;;;;;;;5102099;28;20051;-93
2022/11/26 09:36:55;;;;;;;13.70;8.13;;;;;;;;;;5098879;28;20399;-94
2022/11/26 09:39:22;;;;;;;11.18;8.30;;;;;;;;;;5099286;28;20044;-94
2022/11/26 09:41:52;;;;;;;11.93;7.85;;;;;;;;;;5099297;28;20522;-93
2022/11/26 09:44:38;;;;;;;12.18;8.50;;;;;;;;;;5099127;28;20139;-94
2022/11/26 09:47:22;;;;;;;15.93;9.80;;;;;;;;;;5098755;28;20055;-94
2022/11/26 09:50:12;;;;;;;13.70;9.13;;;;;;;;;;5098393;28;20055;-94
2022/11/26 09:52:42;;;;;;;20.85;10.60;;;;;;;;;;5088319;28;20070;-94
2022/11/26 09:55:10;;;;;;;22.92;12.18;;;;;;;;;;5098119;28;20067;-95
2022/11/26 09:57:46;;;;;;;23.55;13.73;;;;;;;;;;5098014;28;20142;-94
2022/11/26 10:00:24;;;;;;;23.27;12.82;;;;;;;;;;5098031;28;20052;-94
2022/11/26 10:02:52;;;;;;;17.45;11.48;;;;;;;;;;5098186;28;20051;-94
2022/11/26 10:05:22;;;;;;;14.27;10.82;;;;;;;;;;5098038;28;20043;-94
2022/11/26 10:08:02;;;;;;;20.85;9.48;;;;;;;;;;5097853;28;20503;-93
2022/11/26 10:10:44;;;;;;;16.20;8.23;;;;;;;;;;5097920;28;20134;-93
2022/11/26 10:13:18;;;;;;;15.07;8.82;;;;;;;;;;5097862;28;20043;-93
2022/11/26 10:15:58;;;;;;;15.73;8.60;;;;;;;;;;5097766;28;20051;-94
2022/11/26 10:18:33;;;;;;;17.17;7.90;;;;;;;;;;5097221;28;20052;-93
2022/11/26 10:21:03;;;;;;;22.50;7.45;;;;;;;;;;5098295;28;20044;-93
2022/11/26 10:23:37;;;;;;;21.92;9.85;;;;;;;;;;5098447;28;20047;-93
2022/11/26 10:26:27;;;;;;;25.70;9.82;;;;;;;;;;5097691;28;20043;-94
2022/11/26 10:29:03;;;;;;;17.75;8.73;;;;;;;;;;5097546;28;20054;-94
2022/11/26 10:31:32;;;;;;;9.95;4.63;;;;;;;;;;5097402;28;20130;-93
2022/11/26 10:34:01;;;;;;;7.63;3.67;;;;;;;;;;5097936;28;20039;-93
2022/11/26 10:36:37;;;;;;;10.23;4.60;;;;;;;;;;5098819;28;20048;-94
2022/11/26 10:39:06;;;;;;;11.77;6.13;;;;;;;;;;5114237;28;20099;-94
2022/11/26 10:41:34;;;;;;;17.73;6.93;;;;;;;;;;5108818;28;20154;-92
2022/11/26 10:44:20;;;;;;;28.60;16.45;;;;;;;;;;5097352;28;20054;-93
2022/11/26 10:46:48;;;;;;;13.68;8.00;;;;;;;;;;5097750;28;20408;-93
2022/11/26 10:49:18;;;;;;;15.73;6.55;;;;;;;;;;5097197;28;20047;-93
2022/11/26 10:51:47;;;;;;;11.57;6.15;;;;;;;;;;5097016;28;20134;-93
2022/11/26 10:54:24;;;;;;;17.63;8.48;;;;;;;;;;5095332;28;20097;-93
2022/11/26 10:56:52;;;;;;;11.02;6.38;;;;;;;;;;5097220;28;20054;-93
2022/11/26 10:59:24;;;;;;;12.23;4.90;;;;;;;;;;5097012;28;20074;-93
2022/11/26 11:01:54;;;;;;;8.80;4.28;;;;;;;;;;5096981;28;20510;-93
2022/11/26 11:04:27;;;;;;;8.77;3.50;;;;;;;;;;5097276;28;20052;-93
2022/11/26 11:06:54;;;;;;;10.98;4.20;;;;;;;;;;5096749;28;20044;-92
2022/11/26 11:09:29;;;;;;;11.65;4.80;;;;;;;;;;5096962;28;20111;-93
2022/11/26 11:12:17;;;;;;;6.05;3.85;;;;;;;;;;5096977;28;20051;-93
2022/11/26 11:14:45;;;;;;;12.98;2.63;;;;;;;;;;5097183;28;20499;-89
2022/11/26 11:17:31;;;;;;;10.23;2.03;;;;;;;;;;5097046;28;20130;-89
2022/11/26 11:20:17;;;;;;;8.23;1.65;;;;;;;;;;5097067;28;20490;-90
2022/11/26 11:22:45;;;;;;;11.57;2.22;;;;;;;;;;5097762;28;20484;-90
2022/11/26 11:25:24;;;;;;;8.98;2.78;;;;;;;;;;5096663;28;20055;-89
2022/11/26 11:27:53;;;;;;;9.00;1.90;;;;;;;;;;5097072;28;20047;-88
2022/11/26 11:30:25;;;;;;;61.78;42.30;;;;;;;;;;5096352;28;20048;-88
2022/11/26 11:32:56;;;;;;;8.88;3.13;;;;;;;;;;5097066;28;20044;-89
2022/11/26 11:35:25;;;;;;;6.78;2.35;;;;;;;;;;5097439;28;20052;-89
2022/11/26 11:37:53;;;;;;;7.45;2.13;;;;;;;;;;5098785;28;20051;-91
2022/11/26 11:40:26;;;;;;;21.80;13.63;;;;;;;;;;5097376;28;20403;-92
2022/11/26 11:42:55;;;;;;;6.47;2.97;;;;;;;;;;5096362;28;20048;-91
2022/11/26 11:45:28;;;;;;;8.02;4.50;;;;;;;;;;5096068;28;20298;-91
2022/11/26 11:48:00;;;;;;;52.42;6.25;;;;;;;;;;5096515;28;20116;-91
2022/11/26 11:50:31;;;;;;;6.15;2.03;;;;;;;;;;5082104;28;20127;-91
2022/11/26 11:53:17;;;;;;;9.88;3.38;;;;;;;;;;5093485;28;20052;-88
2022/11/26 11:55:47;;;;;;;4.28;2.33;;;;;;;;;;5078565;28;20051;-88
2022/11/26 11:58:14;;;;;;;4.43;2.33;;;;;;;;;;5075749;28;20397;-88
2022/11/26 12:00:41;;;;;;;5.65;1.85;;;;;;;;;;5075767;28;20051;-88
2022/11/26 12:03:27;;;;;;;8.05;1.90;;;;;;;;;;5075623;28;20054;-87
2022/11/26 12:06:03;;;;;;;5.32;1.50;;;;;;;;;;5075939;28;20058;-87
2022/11/26 12:08:43;;;;;;;6.22;2.00;;;;;;;;;;5075692;28;20054;-88
2022/11/26 12:11:10;;;;;;;8.60;2.33;;;;;;;;;;5075630;28;20487;-87
2022/11/26 12:13:58;;;;;;;7.47;2.20;;;;;;;;;;5075343;28;20052;-87
2022/11/26 12:16:28;;;;;;;4.68;1.60;;;;;;;;;;5075457;28;20051;-87
2022/11/26 12:18:59;;;;;;;7.95;2.20;;;;;;;;;;5075191;28;20510;-86
2022/11/26 12:21:40;;;;;;;6.55;2.40;;;;;;;;;;5075388;28;20126;-86
2022/11/26 12:24:12;;;;;;;7.88;1.80;;;;;;;;;;5074745;28;20517;-86
2022/11/26 12:26:43;;;;;;;8.65;1.90;;;;;;;;;;5075273;28;20496;-86
2022/11/26 12:29:13;;;;;;;21.30;2.67;;;;;;;;;;5075319;28;20551;-86
2022/11/26 12:32:00;;;;;;;10.35;2.20;;;;;;;;;;5075057;28;20055;-86
2022/11/26 12:34:28;;;;;;;7.88;1.70;;;;;;;;;;5075249;28;20127;-86
2022/11/26 12:36:55;;;;;;;6.65;0.95;;;;;;;;;;5075226;28;20048;-85
2022/11/26 12:39:33;;;;;;;5.45;1.00;;;;;;;;;;5074953;28;20124;-86
2022/11/26 12:42:26;;;;;;;5.15;1.33;;;;;;;;;;5078630;28;20047;-86
2022/11/26 12:44:56;;;;;;;6.82;1.45;;;;;;;;;;5075333;28;20052;-86
2022/11/26 12:47:30;;;;;;;5.90;1.30;;;;;;;;;;5078628;28;20052;-86
2022/11/26 12:50:03;;;;;;;5.40;1.83;;;;;;;;;;5096632;28;20044;-86
2022/11/26 12:52:34;;;;;;;9.73;1.80;;;;;;;;;;5078745;28;20110;-86
2022/11/26 12:55:07;;;;;;;12.52;1.88;;;;;;;;;;5096724;28;20412;-86
2022/11/26 12:57:39;;;;;;;4.32;1.10;;;;;;;;;;5078277;28;20056;-86
2022/11/26 13:00:30;;;;;;;31.00;3.92;;;;;;;;;;5078361;28;20052;-87
2022/11/26 13:03:04;;;;;;;15.90;2.45;;;;;;;;;;5072302;28;20055;-86
2022/11/26 13:05:56;;;;;;;12.88;2.00;;;;;;;;;;5082954;28;20048;-86
2022/11/26 13:08:28;;;;;;;7.13;1.58;;;;;;;;;;5089156;28;20094;-86
2022/11/26 13:11:05;;;;;;;6.78;1.73;;;;;;;;;;5078136;28;20044;-88
2022/11/26 13:13:39;;;;;;;6.05;1.20;;;;;;;;;;5095990;28;20048;-86
2022/11/26 13:16:06;;;;;;;6.95;1.38;;;;;;;;;;5095623;28;20052;-88
2022/11/26 13:18:35;;;;;;;4.80;1.63;;;;;;;;;;5095824;28;20407;-89
2022/11/26 13:21:21;;;;;;;6.07;1.77;;;;;;;;;;5078061;28;20418;-88
2022/11/26 13:23:57;;;;;;;4.15;1.92;;;;;;;;;;5077920;28;20044;-89
2022/11/26 13:26:28;;;;;;;9.32;2.15;;;;;;;;;;5095508;28;20048;-88
2022/11/26 13:29:13;;;;;;;7.85;2.13;;;;;;;;;;5077950;28;20525;-89
2022/11/26 13:31:56;;;;;;;11.98;1.80;;;;;;;;;;5077684;28;20416;-88
2022/11/26 13:34:37;;;;;;;8.73;2.83;;;;;;;;;;5077895;28;20059;-88
2022/11/26 13:37:04;;;;;;;3.85;1.55;;;;;;;;;;5077742;28;20460;-89
2022/11/26 13:39:50;;;;;;;21.98;10.77;;;;;;;;;;5077667;28;20044;-89
2022/11/26 13:42:33;;;;;;;16.35;8.20;;;;;;;;;;5095376;28;20058;-88
2022/11/26 13:45:12;;;;;;;10.35;5.35;;;;;;;;;;5077342;28;20140;-88
2022/11/26 13:47:47;;;;;;;13.02;5.35;;;;;;;;;;5095153;28;20056;-88
2022/11/26 13:50:18;;;;;;;8.88;5.18;;;;;;;;;;5095395;28;20442;-88
2022/11/26 13:52:48;;;;;;;12.65;5.80;;;;;;;;;;5076559;28;20396;-88
2022/11/26 13:55:18;;;;;;;9.02;5.22;;;;;;;;;;5077129;28;20052;-88
2022/11/26 13:57:53;;;;;;;4.22;2.33;;;;;;;;;;5077148;28;20047;-89
2022/11/26 14:00:25;;;;;;;5.55;1.70;;;;;;;;;;5077391;28;20055;-88
2022/11/26 14:02:52;;;;;;;3.90;1.33;;;;;;;;;;5077194;28;20052;-88
2022/11/26 14:05:20;;;;;;;8.48;1.88;;;;;;;;;;5094946;28;20048;-89
2022/11/26 14:07:47;;;;;;;8.73;2.65;;;;;;;;;;5077223;28;20040;-88
2022/11/26 14:10:33;;;;;;;8.98;3.33;;;;;;;;;;5077800;28;20384;-88
2022/11/26 14:13:06;;;;;;;7.28;1.88;;;;;;;;;;5095299;28;20401;-88
2022/11/26 14:15:42;;;;;;;5.43;2.08;;;;;;;;;;5095919;28;20079;-88
2022/11/26 14:18:14;;;;;;;4.95;2.90;;;;;;;;;;5078786;28;20048;-88
2022/11/26 14:20:58;;;;;;;12.18;4.88;;;;;;;;;;5105607;28;20048;-88
2022/11/26 14:23:44;;;;;;;6.13;4.57;;;;;;;;;;5077774;28;20052;-89
2022/11/26 14:26:11;;;;;;;9.50;4.70;;;;;;;;;;5076859;28;20480;-88
2022/11/26 14:28:38;;;;;;;9.07;4.40;;;;;;;;;;5093913;28;20051;-89
2022/11/26 14:31:20;;;;;;;12.98;6.32;;;;;;;;;;5076510;28;20048;-89
2022/11/26 14:33:48;;;;;;;15.13;6.80;;;;;;;;;;5076746;28;20397;-89
2022/11/26 14:36:20;;;;;;;10.25;6.60;;;;;;;;;;5094135;28;20043;-88
2022/11/26 14:39:02;;;;;;;43.50;25.67;;;;;;;;;;5076343;28;20052;-89
2022/11/26 14:41:42;;;;;;;22.85;14.50;;;;;;;;;;5075918;28;20044;-88
2022/11/26 14:44:16;;;;;;;8.57;5.32;;;;;;;;;;5094343;28;20484;-88
2022/11/26 14:46:45;;;;;;;14.93;6.70;;;;;;;;;;5076050;28;20052;-89
2022/11/26 14:49:18;;;;;;;18.05;7.50;;;;;;;;;;5076350;28;20044;-88